Harrisburg International Airport
KMDT : now visible

Airfield :











YOU CAN JOIN US ON...

 
LOGIN :

Register | Disclaimer

   EN    FR    IT 

 









Legend :    VFR   Marginal VFR   IFR   Intensive IFR   Very Intensive IFR
Visi :
Ceiling :
>= 8 km
>= 3000ft
5 to 8 km
1000 to 3000 ft
1500m to 5 km
500 to 1000 ft
800 to 1500m
200 to 500 ft
< 800m
< 200 ft
Symbols :   Thunderstorms  Fog  Heavy snow  Heavy precipitations  Wind > 20 kt






- Airport Elevation : 310 ft
- IATA code : MDT


KMDT - Harrisburg International

CURRENT METAR :
  • 280513Z 12007KT 10SM SCT013 BKN250 20/18 A3016 RMK AO2 T02000183

EXPIRED METARs :
  • 280456Z 13006KT 10SM BKN014 20/18 A3016 RMK AO2 SLP213 T02000183 402720167
  • 280444Z 13007KT 10SM BKN014 21/19 A3016 RMK AO2 T02060189
  • 280356Z 13007KT 10SM SCT031 BKN250 21/19 A3017 RMK AO2 SLP215 T02110189
  • 280256Z 14005KT 10SM FEW200 BKN250 21/18 A3016 RMK AO2 SLP211 T02110183 53009

TAF KMDT
Valid from the 28 at 06:00 until the 29 at 06:00 UTC


280534Z 2806/2906 13006KT P6SM BKN015
FM280900 13007KT 5SM BR VCSH OVC007
FM281800 16008G15KT P6SM VCSH BKN015
KZNY FIR / North America



MET'MAP, your aeronautical weather chart ! - Copyright ORBIFLY December 2007 - Disclaimer

ORBIFLY MET'MAP TEAM :

Programming & Development : Alexandra Zaïnal
Concept & original design : Baudouin d'Aumeries
Assistance for programming : Marc-Olivier Méhu
Technical & hardware support : Manuel Goepfert

Contact : metmap@orbifly.com




SOURCES & CREDITS :

   NOAA       Earth
Advisory